Time;durP1;ratioP1;P1;durP2;ratioP2;P2;SDS_P1;SDS_P2;PMS_P1;PMS_P2;Temp;Humidity;BMP_temperature;BMP_pressure;BME280_temperature;BME280_humidity;BME280_pressure;Samples;Min_cycle;Max_cycle;Signal;HPM_P1;HPM_P2
2024/02/25 00:00:04;;;;;;;20.67;10.95;;;2.20;99.90;;;;;;6198357;28;20062;-92
2024/02/25 00:03:06;;;;;;;21.88;11.73;;;2.20;99.90;;;;;;6195330;28;20058;-93
2024/02/25 00:06:07;;;;;;;19.75;10.85;;;2.30;99.90;;;;;;6241080;22;20050;-93
2024/02/25 00:09:10;;;;;;;21.73;11.40;;;2.30;99.90;;;;;;6188038;28;20118;-93
2024/02/25 00:12:12;;;;;;;21.23;11.20;;;2.20;99.90;;;;;;6190629;28;20133;-94
2024/02/25 00:15:13;;;;;;;19.88;11.10;;;2.20;99.90;;;;;;6179864;28;20055;-93
2024/02/25 00:18:15;;;;;;;21.83;9.98;;;2.10;99.90;;;;;;6202275;28;20047;-94
2024/02/25 00:21:17;;;;;;;22.35;10.38;;;2.10;99.90;;;;;;6197328;28;20074;-93
2024/02/25 00:24:21;;;;;;;16.67;10.05;;;2.00;99.90;;;;;;6198821;28;20050;-93
2024/02/25 00:27:23;;;;;;;23.00;11.65;;;2.00;99.90;;;;;;6192230;28;20105;-94
2024/02/25 00:30:25;;;;;;;22.73;10.90;;;2.00;99.90;;;;;;6195026;28;20057;-93
2024/02/25 00:33:27;;;;;;;17.70;9.73;;;1.90;99.90;;;;;;6191933;28;20057;-93
2024/02/25 00:36:30;;;;;;;19.00;9.45;;;2.00;99.90;;;;;;6191979;28;20059;-95
2024/02/25 00:39:32;;;;;;;16.70;9.38;;;1.80;99.90;;;;;;6188742;28;20062;-94
2024/02/25 00:42:34;;;;;;;17.65;10.07;;;1.80;99.90;;;;;;6186899;28;20059;-94
2024/02/25 00:45:36;;;;;;;23.15;10.60;;;1.70;99.90;;;;;;6179808;28;20078;-94
2024/02/25 00:48:38;;;;;;;19.23;10.00;;;1.70;99.90;;;;;;6164645;28;20094;-94
2024/02/25 00:51:40;;;;;;;19.77;10.30;;;1.70;99.90;;;;;;6190724;28;20058;-93
2024/02/25 00:54:44;;;;;;;17.85;9.52;;;1.60;99.90;;;;;;6193229;28;20050;-93
2024/02/25 00:57:46;;;;;;;20.10;9.75;;;1.60;99.90;;;;;;6198969;28;20062;-94
2024/02/25 01:00:48;;;;;;;23.83;10.13;;;1.80;99.90;;;;;;6173933;28;20055;-94
2024/02/25 01:03:51;;;;;;;17.33;9.45;;;1.50;99.90;;;;;;6174514;28;20051;-94
2024/02/25 01:06:53;;;;;;;19.23;9.45;;;1.50;99.90;;;;;;6194436;28;20063;-94
2024/02/25 01:09:55;;;;;;;20.85;10.05;;;1.50;99.90;;;;;;6197360;28;20051;-93
2024/02/25 01:12:57;;;;;;;16.95;9.15;;;1.50;99.90;;;;;;6195010;28;20051;-93
2024/02/25 01:16:02;;;;;;;15.93;9.02;;;1.40;99.90;;;;;;6190327;28;20054;-94
2024/02/25 01:19:04;;;;;;;20.67;9.90;;;1.30;99.90;;;;;;6187099;28;20054;-94
2024/02/25 01:22:06;;;;;;;21.60;10.32;;;1.30;99.90;;;;;;6192737;28;20089;-94
2024/02/25 01:25:08;;;;;;;19.63;9.88;;;1.30;99.90;;;;;;6193063;28;20433;-94
2024/02/25 01:28:10;;;;;;;19.42;9.38;;;1.30;99.90;;;;;;6210992;28;20051;-94
2024/02/25 01:31:12;;;;;;;15.45;8.43;;;1.50;99.90;;;;;;6208373;28;20054;-94
2024/02/25 01:34:14;;;;;;;16.10;8.18;;;1.40;99.90;;;;;;6175889;29;20574;-94
2024/02/25 01:37:16;;;;;;;17.17;9.27;;;1.40;99.90;;;;;;6215689;28;20066;-96
2024/02/25 01:40:18;;;;;;;15.98;7.32;;;1.40;99.90;;;;;;6199817;28;20061;-94
2024/02/25 01:43:20;;;;;;;15.15;7.82;;;1.70;99.90;;;;;;6200498;28;20133;-94
2024/02/25 01:46:26;;;;;;;16.63;8.50;;;1.30;99.90;;;;;;6201556;28;20134;-94
2024/02/25 01:49:27;;;;;;;19.13;8.32;;;1.30;99.90;;;;;;6205467;28;20115;-94
2024/02/25 01:52:30;;;;;;;19.88;9.35;;;1.20;99.90;;;;;;6204182;28;20047;-94
2024/02/25 01:55:31;;;;;;;16.80;8.75;;;1.20;99.90;;;;;;6201783;28;20034;-93
2024/02/25 01:58:33;;;;;;;18.55;8.30;;;1.20;99.90;;;;;;6199023;28;20047;-86
2024/02/25 02:01:35;;;;;;;18.67;8.57;;;1.20;99.90;;;;;;6204126;28;20051;-94
2024/02/25 02:04:37;;;;;;;16.63;8.73;;;1.20;99.90;;;;;;6214392;28;20057;-93
2024/02/25 02:07:39;;;;;;;19.80;8.65;;;1.10;99.90;;;;;;6202325;28;20051;-94
2024/02/25 02:10:41;;;;;;;18.33;8.20;;;1.10;99.90;;;;;;6201995;28;20065;-94
2024/02/25 02:13:42;;;;;;;17.95;8.85;;;1.00;99.90;;;;;;6192674;28;20066;-94
2024/02/25 02:16:44;;;;;;;16.08;8.18;;;1.00;99.90;;;;;;6203228;28;20071;-94
2024/02/25 02:19:46;;;;;;;14.02;7.78;;;1.00;99.90;;;;;;6203355;28;20057;-94
2024/02/25 02:22:48;;;;;;;14.98;7.85;;;0.90;99.90;;;;;;6198475;28;20051;-94
2024/02/25 02:25:50;;;;;;;17.75;8.55;;;0.90;99.90;;;;;;6196321;28;20557;-95
2024/02/25 02:28:52;;;;;;;15.23;7.57;;;0.90;99.90;;;;;;6189164;28;20055;-94
2024/02/25 02:31:56;;;;;;;15.20;8.50;;;0.90;99.90;;;;;;6203561;28;20039;-94
2024/02/25 02:34:58;;;;;;;16.05;7.97;;;0.90;99.90;;;;;;6199656;28;20046;-94
2024/02/25 02:38:00;;;;;;;13.27;8.00;;;0.80;99.90;;;;;;6205315;28;20054;-95
2024/02/25 02:41:02;;;;;;;15.75;8.40;;;0.80;99.90;;;;;;6205590;28;20081;-95
2024/02/25 02:44:06;;;;;;;13.85;7.47;;;0.80;99.90;;;;;;6194725;28;20058;-94
2024/02/25 02:47:08;;;;;;;16.88;8.50;;;0.70;99.90;;;;;;6205666;28;20050;-95
2024/02/25 02:50:10;;;;;;;16.42;8.02;;;0.70;99.90;;;;;;6204535;28;20047;-94
2024/02/25 02:53:12;;;;;;;17.05;8.43;;;0.60;99.90;;;;;;6218929;28;20110;-94
2024/02/25 02:56:14;;;;;;;17.40;8.52;;;0.60;99.90;;;;;;6207901;28;20054;-95
2024/02/25 02:59:17;;;;;;;14.73;7.93;;;0.60;99.90;;;;;;6203503;28;20118;-94
2024/02/25 03:02:18;;;;;;;21.27;8.60;;;0.60;99.90;;;;;;6205860;28;20047;-95
2024/02/25 03:05:20;;;;;;;18.70;8.68;;;0.60;99.90;;;;;;6205383;28;20061;-94
2024/02/25 03:08:22;;;;;;;14.30;8.00;;;0.50;99.90;;;;;;6205582;28;20061;-94
2024/02/25 03:14:36;;;;;;;15.73;7.82;;;0.50;99.90;;;;;;7268209;22;20054;-95
2024/02/25 03:17:38;;;;;;;22.63;8.23;;;0.50;99.90;;;;;;6503763;23;20051;-94
2024/02/25 03:20:49;;;;;;;15.65;7.57;;;0.50;99.90;;;;;;6207476;28;20050;-95
2024/02/25 03:23:51;;;;;;;;;;;0.60;99.90;;;;;;6231019;28;20077;-96
2024/02/25 03:30:17;;;;;;;15.02;7.63;;;0.40;99.90;;;;;;6559203;23;20042;-96
2024/02/25 03:33:18;;;;;;;12.55;7.35;;;0.50;99.90;;;;;;6230233;28;20031;-94
2024/02/25 03:36:20;;;;;;;16.85;7.60;;;0.50;99.90;;;;;;6252117;28;20106;-95
2024/02/25 03:39:23;;;;;;;16.95;8.07;;;0.40;99.90;;;;;;6227455;28;20057;-96
2024/02/25 03:42:24;;;;;;;16.17;7.82;;;0.30;99.90;;;;;;6242939;28;20147;-95
2024/02/25 03:45:26;;;;;;;16.60;8.27;;;0.30;99.90;;;;;;6236492;28;20050;-95
2024/02/25 03:48:28;;;;;;;15.73;7.93;;;0.40;99.90;;;;;;6240606;28;20050;-95
2024/02/25 03:51:30;;;;;;;14.38;7.05;;;0.50;99.90;;;;;;6253578;28;20069;-95
2024/02/25 03:54:33;;;;;;;16.17;8.35;;;0.30;99.90;;;;;;6229123;28;20110;-96
2024/02/25 03:57:35;;;;;;;15.52;8.20;;;2.20;99.90;;;;;;6253136;28;20076;-95
2024/02/25 04:00:41;;;;;;;20.33;9.50;;;0.30;99.90;;;;;;6216373;28;20053;-96
2024/02/25 04:04:04;;;;;;;19.10;8.98;;;0.20;99.90;;;;;;6226059;28;20046;-95
2024/02/25 04:07:45;;;;;;;18.25;10.02;;;0.20;99.90;;;;;;6207294;28;20035;-94
2024/02/25 04:11:26;;;;;;;19.83;10.15;;;0.20;99.90;;;;;;6202517;28;20075;-95
2024/02/25 04:38:24;;;;;;;21.60;9.60;;;0.10;99.90;;;;;;6273663;28;20113;-96
2024/02/25 04:41:26;;;;;;;18.42;9.45;;;0.10;99.90;;;;;;6290000;28;20072;-95
2024/02/25 04:44:28;;;;;;;22.73;10.75;;;0.10;99.90;;;;;;6253641;28;20050;-95
2024/02/25 04:47:31;;;;;;;19.58;9.20;;;0.50;99.90;;;;;;6282872;28;20043;-94
2024/02/25 04:50:36;;;;;;;20.00;9.60;;;0.00;99.90;;;;;;6253335;28;20056;-94
2024/02/25 04:53:38;;;;;;;18.38;9.38;;;0.10;99.90;;;;;;6229743;28;20042;-94
2024/02/25 04:56:40;;;;;;;18.42;8.95;;;0.00;99.90;;;;;;6290704;28;20052;-94
2024/02/25 04:59:42;;;;;;;20.80;10.25;;;-0.10;99.90;;;;;;6261036;28;20049;-94
2024/02/25 05:02:44;;;;;;;19.05;9.13;;;-0.10;99.90;;;;;;6266571;28;20084;-95
2024/02/25 05:05:46;;;;;;;20.50;9.52;;;-0.10;99.90;;;;;;6238018;28;20396;-94
2024/02/25 05:08:48;;;;;;;19.13;9.95;;;-0.20;99.90;;;;;;6283525;28;20071;-94
2024/02/25 05:11:50;;;;;;;23.80;9.23;;;0.10;99.90;;;;;;6240411;28;20061;-94
2024/02/25 05:14:52;;;;;;;18.33;9.02;;;0.10;99.90;;;;;;6257188;28;20052;-93
2024/02/25 05:17:56;;;;;;;20.40;9.00;;;-0.20;99.90;;;;;;6261456;28;20061;-91
2024/02/25 05:20:58;;;;;;;18.85;9.10;;;-0.40;99.90;;;;;;6260519;28;20112;-93
2024/02/25 05:23:59;;;;;;;23.17;9.63;;;0.50;99.90;;;;;;6267098;28;20202;-93
2024/02/25 05:27:02;;;;;;;23.98;10.88;;;0.10;99.90;;;;;;6250790;28;20049;-91
2024/02/25 05:30:03;;;;;;;21.38;10.73;;;-0.30;99.90;;;;;;6260997;28;20052;-91
2024/02/25 05:33:05;;;;;;;19.95;9.32;;;0.30;99.90;;;;;;6226393;28;20416;-93
2024/02/25 05:36:07;;;;;;;19.25;9.45;;;-0.40;99.90;;;;;;6250848;28;20088;-91
2024/02/25 05:39:11;;;;;;;20.88;9.73;;;;;;;;;;6210125;28;20121;-92
2024/02/25 05:42:13;;;;;;;18.08;9.00;;;0.70;99.90;;;;;;6263344;28;20057;-93
2024/02/25 05:45:15;;;;;;;19.95;9.40;;;;;;;;;;6255659;28;20045;-92
2024/02/25 05:48:18;;;;;;;21.10;10.07;;;-0.40;99.90;;;;;;6232986;28;20136;-92
2024/02/25 05:51:20;;;;;;;18.80;8.75;;;-0.40;99.90;;;;;;6245675;28;20084;-92
2024/02/25 05:54:22;;;;;;;18.15;8.52;;;-0.40;99.90;;;;;;6255741;28;20056;-91
2024/02/25 05:57:23;;;;;;;18.63;9.05;;;-0.60;99.90;;;;;;6277997;28;20108;-92
2024/02/25 06:00:25;;;;;;;17.58;8.80;;;0.80;99.90;;;;;;6229029;28;20046;-92
2024/02/25 06:03:27;;;;;;;18.35;8.68;;;-0.50;99.90;;;;;;6246129;28;20046;-91
2024/02/25 06:06:29;;;;;;;17.25;7.95;;;-0.50;99.90;;;;;;6235181;28;20881;-91
2024/02/25 06:09:30;;;;;;;17.33;8.38;;;-0.50;99.90;;;;;;6248858;28;20121;-91
2024/02/25 06:12:35;;;;;;;20.88;9.23;;;-0.60;99.90;;;;;;6249309;28;20046;-91
2024/02/25 06:15:37;;;;;;;17.38;8.68;;;-0.50;99.90;;;;;;6243069;28;20516;-92
2024/02/25 06:18:39;;;;;;;19.45;8.45;;;-0.60;99.90;;;;;;6256611;28;20095;-91
2024/02/25 06:21:41;;;;;;;17.25;7.60;;;-0.60;99.90;;;;;;6244115;28;20065;-91
2024/02/25 06:24:42;;;;;;;14.15;7.15;;;-0.60;99.90;;;;;;6271973;28;20049;-88
2024/02/25 06:27:45;;;;;;;21.40;7.63;;;-0.70;99.90;;;;;;6243394;28;20052;-92
2024/02/25 06:30:47;;;;;;;19.95;8.32;;;-0.60;99.90;;;;;;6241506;28;20480;-91
2024/02/25 06:33:48;;;;;;;16.58;7.82;;;-0.50;99.90;;;;;;6256075;28;20063;-90
2024/02/25 06:36:50;;;;;;;18.20;8.00;;;-0.60;99.90;;;;;;6228349;28;20064;-90
2024/02/25 06:39:51;;;;;;;16.50;8.63;;;-0.70;99.90;;;;;;6251494;28;20060;-90
2024/02/25 06:42:53;;;;;;;15.77;8.02;;;-0.60;99.90;;;;;;6252796;28;20064;-90
2024/02/25 06:45:55;;;;;;;17.00;8.15;;;-0.60;99.90;;;;;;6248361;28;20578;-89
2024/02/25 06:48:57;;;;;;;18.73;8.52;;;-0.60;99.90;;;;;;6224496;28;20065;-90
2024/02/25 06:51:59;;;;;;;17.95;8.30;;;-0.60;99.90;;;;;;6255877;28;20179;-90
2024/02/25 06:55:01;;;;;;;18.52;8.85;;;-0.40;99.90;;;;;;6231560;28;20057;-89
2024/02/25 06:58:03;;;;;;;15.68;7.82;;;-0.60;99.90;;;;;;6252402;28;20957;-88
2024/02/25 07:01:05;;;;;;;17.15;8.15;;;-0.60;99.90;;;;;;6255197;28;20052;-90
2024/02/25 07:04:07;;;;;;;19.02;8.55;;;-0.50;99.90;;;;;;6208118;28;20069;-89
2024/02/25 07:07:08;;;;;;;17.58;8.55;;;3.00;99.90;;;;;;6277138;28;20138;-91
2024/02/25 07:10:10;;;;;;;18.70;8.57;;;-0.40;99.90;;;;;;6232548;28;20046;-90
2024/02/25 07:13:12;;;;;;;16.45;9.00;;;-0.40;99.90;;;;;;6241816;28;20045;-89
2024/02/25 07:16:13;;;;;;;18.42;9.32;;;-0.40;99.90;;;;;;6244020;28;20049;-88
2024/02/25 07:19:15;;;;;;;19.88;9.13;;;-0.30;99.90;;;;;;6263435;28;20052;-89
2024/02/25 07:22:17;;;;;;;17.50;8.95;;;-0.30;99.90;;;;;;6226553;28;20131;-89
2024/02/25 07:25:19;;;;;;;20.42;8.68;;;-0.20;99.90;;;;;;6235940;28;20053;-89
2024/02/25 07:28:20;;;;;;;18.23;9.65;;;-0.20;99.90;;;;;;6254474;28;20056;-89
2024/02/25 07:31:31;;;;;;;16.15;8.98;;;-0.20;99.90;;;;;;6253397;28;20107;-89
2024/02/25 07:34:33;;;;;;;18.00;9.00;;;-0.20;99.90;;;;;;6276319;28;20060;-90
2024/02/25 07:37:35;;;;;;;21.33;9.77;;;-0.10;99.90;;;;;;6234705;28;20084;-89
2024/02/25 07:40:36;;;;;;;18.08;9.23;;;-0.10;99.90;;;;;;6251887;28;20052;-89
2024/02/25 07:43:38;;;;;;;16.83;9.02;;;0.20;99.90;;;;;;6264870;28;20063;-90
2024/02/25 07:46:40;;;;;;;17.88;8.98;;;0.20;99.90;;;;;;6221677;28;20053;-91
2024/02/25 07:49:42;;;;;;;15.90;9.00;;;0.10;99.90;;;;;;6239797;28;20049;-88
2024/02/25 07:52:44;;;;;;;17.35;8.55;;;0.20;99.90;;;;;;6276774;28;20080;-90
2024/02/25 07:55:46;;;;;;;16.67;8.50;;;0.60;99.90;;;;;;6231314;28;20498;-89
2024/02/25 07:58:48;;;;;;;19.48;8.77;;;0.50;99.90;;;;;;6245924;28;20473;-89
2024/02/25 08:01:49;;;;;;;15.25;8.10;;;0.60;99.90;;;;;;6225640;28;20049;-88
2024/02/25 08:04:51;;;;;;;17.13;8.40;;;0.80;99.90;;;;;;6214680;28;20054;-87
2024/02/25 08:07:53;;;;;;;18.00;8.10;;;1.40;99.90;;;;;;6239235;28;20056;-89
2024/02/25 08:10:54;;;;;;;13.90;7.38;;;2.00;99.90;;;;;;6276993;28;20049;-90
2024/02/25 08:13:56;;;;;;;11.32;6.30;;;2.90;99.90;;;;;;6225912;28;20648;-89
2024/02/25 08:16:58;;;;;;;9.55;4.80;;;3.70;99.90;;;;;;6251922;28;20057;-89
2024/02/25 08:20:00;;;;;;;7.40;3.90;;;4.40;99.90;;;;;;6257530;28;20045;-86
2024/02/25 08:23:01;;;;;;;9.73;3.33;;;5.20;99.90;;;;;;6235586;28;20060;-91
2024/02/25 08:26:03;;;;;;;6.50;3.88;;;5.90;99.90;;;;;;6270588;28;20068;-88
2024/02/25 08:29:05;;;;;;;7.07;3.03;;;6.60;99.90;;;;;;6221751;28;20052;-92
2024/02/25 08:32:06;;;;;;;8.35;3.30;;;7.10;99.90;;;;;;6252414;28;20054;-89
2024/02/25 08:35:08;;;;;;;6.03;2.80;;;7.50;99.90;;;;;;6260328;28;20061;-90
2024/02/25 08:38:11;;;;;;;4.95;2.67;;;8.00;99.90;;;;;;6245773;28;20409;-88
2024/02/25 08:41:13;;;;;;;5.20;2.83;;;8.40;98.20;;;;;;6246341;28;20056;-91
2024/02/25 08:44:14;;;;;;;6.55;2.55;;;8.60;93.50;;;;;;6252352;28;20469;-92
2024/02/25 08:47:16;;;;;;;5.93;2.83;;;8.70;85.30;;;;;;6238515;28;20069;-92
2024/02/25 08:50:18;;;;;;;4.45;2.65;;;8.60;82.80;;;;;;6268249;28;20049;-91
2024/02/25 08:53:20;;;;;;;4.57;2.50;;;9.10;90.70;;;;;;6236930;28;20524;-93
2024/02/25 08:56:22;;;;;;;4.85;2.38;;;9.60;87.70;;;;;;6232192;28;20026;-93
2024/02/25 08:59:24;;;;;;;4.90;2.78;;;9.50;51.80;;;;;;6243509;28;20045;-93
2024/02/25 09:02:27;;;;;;;4.75;2.30;;;9.80;75.30;;;;;;6239627;28;20119;-93
2024/02/25 09:05:29;;;;;;;4.80;2.03;;;10.00;40.70;;;;;;6239729;28;20054;-92
2024/02/25 09:08:31;;;;;;;5.15;2.00;;;9.50;42.10;;;;;;6263336;28;20053;-92
2024/02/25 09:11:32;;;;;;;4.90;2.30;;;8.90;57.20;;;;;;6246465;28;20057;-89
2024/02/25 09:14:34;;;;;;;4.47;2.20;;;8.70;75.40;;;;;;6235426;28;20585;-87
2024/02/25 09:17:36;;;;;;;6.00;2.40;;;8.50;82.10;;;;;;6250205;28;20059;-87
2024/02/25 09:20:39;;;;;;;5.15;2.45;;;8.10;88.80;;;;;;6241876;28;20056;-88
2024/02/25 09:23:40;;;;;;;6.30;3.00;;;7.90;91.10;;;;;;6236002;28;20455;-85
2024/02/25 09:26:45;;;;;;;6.35;2.78;;;7.80;96.40;;;;;;6236421;28;20405;-91
2024/02/25 09:29:47;;;;;;;7.72;2.88;;;7.60;98.50;;;;;;6228895;28;20560;-90
2024/02/25 09:32:49;;;;;;;5.50;2.50;;;8.00;98.60;;;;;;6225401;28;20056;-89
2024/02/25 09:35:50;;;;;;;4.22;2.10;;;8.80;93.40;;;;;;6217352;28;20067;-89
2024/02/25 09:38:52;;;;;;;4.47;1.90;;;9.70;87.80;;;;;;6245187;28;20575;-86
2024/02/25 09:41:54;;;;;;;4.57;2.13;;;9.60;75.90;;;;;;6221309;28;20054;-86
2024/02/25 09:44:56;;;;;;;5.05;2.25;;;10.20;61.90;;;;;;6204375;28;20068;-84
2024/02/25 09:47:57;;;;;;;5.05;2.08;;;10.50;43.20;;;;;;6267707;28;20080;-84
2024/02/25 09:50:59;;;;;;;5.05;2.50;;;10.60;35.10;;;;;;6229686;28;20045;-90
2024/02/25 09:54:01;;;;;;;5.00;2.17;;;11.20;22.20;;;;;;6241229;28;20570;-86
2024/02/25 09:57:03;;;;;;;5.68;2.40;;;11.30;14.90;;;;;;6246389;28;20064;-89
2024/02/25 10:00:05;;;;;;;4.07;2.22;;;10.50;12.90;;;;;;6248923;28;20059;-83
2024/02/25 10:03:10;;;;;;;3.83;1.67;;;10.10;37.40;;;;;;6215800;28;20049;-88
2024/02/25 10:06:12;;;;;;;3.92;1.80;;;9.90;41.60;;;;;;6255904;28;20042;-87
2024/02/25 10:09:14;;;;;;;4.20;1.45;;;10.30;40.90;;;;;;6252145;28;20053;-86
2024/02/25 10:12:16;;;;;;;8.82;1.73;;;10.70;28.90;;;;;;6261599;28;20575;-85
2024/02/25 10:15:18;;;;;;;4.20;1.60;;;11.00;13.10;;;;;;6249440;28;20060;-85
2024/02/25 10:18:19;;;;;;;4.25;1.55;;;11.30;20.60;;;;;;6242054;28;20055;-87
2024/02/25 10:21:21;;;;;;;5.18;1.70;;;11.70;14.70;;;;;;6268161;28;20507;-86
2024/02/25 10:24:23;;;;;;;4.45;1.58;;;11.90;4.00;;;;;;6218880;28;20053;-88
2024/02/25 10:27:26;;;;;;;4.40;1.40;;;11.70;1.00;;;;;;6237139;28;20045;-85
2024/02/25 10:30:28;;;;;;;4.95;1.65;;;12.10;2.60;;;;;;6269141;28;20068;-87
2024/02/25 10:33:30;;;;;;;4.80;1.58;;;12.40;1.00;;;;;;6201212;28;20060;-85
2024/02/25 10:36:32;;;;;;;5.22;1.88;;;12.70;1.00;;;;;;6253884;28;20420;-85
2024/02/25 10:39:34;;;;;;;5.30;1.50;;;13.00;1.00;;;;;;6258973;28;20050;-87
2024/02/25 10:42:37;;;;;;;4.97;1.25;;;13.40;1.00;;;;;;6274292;28;20049;-86
2024/02/25 10:45:39;;;;;;;5.93;1.50;;;13.50;1.00;;;;;;6245563;28;20056;-84
2024/02/25 10:48:41;;;;;;;5.15;1.40;;;13.90;1.00;;;;;;6214264;28;20053;-83
2024/02/25 10:51:43;;;;;;;6.80;1.40;;;13.40;1.00;;;;;;6265930;28;20057;-85
2024/02/25 10:54:48;;;;;;;5.32;1.35;;;13.00;1.00;;;;;;6251803;28;20412;-90
2024/02/25 10:57:49;;;;;;;8.18;1.40;;;13.00;1.00;;;;;;6254107;28;20471;-87
2024/02/25 11:00:52;;;;;;;6.95;1.50;;;13.10;1.00;;;;;;6231013;28;20141;-86
2024/02/25 11:03:54;;;;;;;10.27;1.77;;;13.00;1.00;;;;;;6241821;28;20049;-91
2024/02/25 11:07:00;;;;;;;7.10;1.50;;;12.40;1.00;;;;;;6242214;28;20107;-87
2024/02/25 11:10:02;;;;;;;6.18;1.88;;;11.60;1.00;;;;;;6249093;28;20508;-86
2024/02/25 11:13:04;;;;;;;6.90;1.30;;;12.00;1.00;;;;;;6269914;28;20041;-93
2024/02/25 11:16:06;;;;;;;6.30;1.40;;;12.20;1.00;;;;;;6242973;28;20061;-88
2024/02/25 11:19:07;;;;;;;6.88;1.50;;;12.10;1.00;;;;;;6238708;28;20060;-92
2024/02/25 11:22:10;;;;;;;7.55;1.60;;;12.30;1.00;;;;;;6248374;28;20049;-87
2024/02/25 11:25:11;;;;;;;6.03;1.63;;;13.00;1.00;;;;;;6238714;28;20061;-86
2024/02/25 11:28:20;;;;;;;5.97;1.40;;;13.10;1.00;;;;;;6246735;28;20068;-86
2024/02/25 11:31:21;;;;;;;10.23;2.05;;;12.30;1.00;;;;;;6242458;28;20061;-86
2024/02/25 11:34:23;;;;;;;5.85;2.05;;;11.60;1.00;;;;;;6255330;28;20057;-85
2024/02/25 11:37:25;;;;;;;8.30;2.00;;;11.30;1.00;;;;;;6245113;28;20642;-84
2024/02/25 11:40:26;;;;;;;8.02;2.20;;;10.90;1.00;;;;;;6227078;28;20049;-82
2024/02/25 11:43:28;;;;;;;8.93;2.42;;;10.90;14.20;;;;;;6227214;28;20064;-84
2024/02/25 11:46:30;;;;;;;10.55;2.60;;;10.70;15.50;;;;;;6271701;28;20500;-83
2024/02/25 11:49:32;;;;;;;10.65;2.47;;;10.50;16.00;;;;;;6246212;28;20054;-83
2024/02/25 11:52:33;;;;;;;10.38;2.13;;;10.60;20.60;;;;;;6234287;28;20045;-83
2024/02/25 11:55:38;;;;;;;11.95;2.75;;;10.80;11.10;;;;;;6232313;28;20045;-88
2024/02/25 11:58:40;;;;;;;8.05;2.42;;;11.00;8.60;;;;;;6230694;28;20064;-87
2024/02/25 12:01:42;;;;;;;7.97;2.30;;;11.10;2.10;;;;;;6228911;28;20052;-85
2024/02/25 12:04:43;;;;;;;8.75;2.03;;;10.90;7.10;;;;;;6242978;28;20050;-87
2024/02/25 12:07:45;;;;;;;10.50;2.72;;;11.10;4.80;;;;;;6237064;28;20060;-88
2024/02/25 12:10:47;;;;;;;7.47;2.50;;;11.30;1.00;;;;;;6219960;28;20405;-87
2024/02/25 12:13:49;;;;;;;9.23;2.33;;;10.90;1.00;;;;;;6222860;28;20069;-87
2024/02/25 12:16:51;;;;;;;12.85;2.63;;;11.00;1.00;;;;;;6228634;28;20060;-86
2024/02/25 12:19:55;;;;;;;10.60;2.40;;;11.00;1.00;;;;;;6228396;28;20412;-86
2024/02/25 12:22:57;;;;;;;8.93;2.20;;;10.70;7.00;;;;;;6253927;28;20060;-85
2024/02/25 12:25:59;;;;;;;11.57;2.75;;;10.80;13.00;;;;;;6229364;28;20615;-88
2024/02/25 12:29:01;;;;;;;9.38;1.90;;;10.50;6.80;;;;;;6222474;28;20218;-87
2024/02/25 12:32:03;;;;;;;11.95;2.40;;;10.40;1.70;;;;;;6250974;28;20054;-83
2024/02/25 12:35:04;;;;;;;9.35;2.00;;;10.30;3.20;;;;;;6227985;28;20440;-87
2024/02/25 12:38:06;;;;;;;11.68;2.20;;;10.20;1.00;;;;;;6219306;28;20394;-89
2024/02/25 12:41:08;;;;;;;10.23;2.25;;;10.10;8.20;;;;;;6229192;28;20053;-87
2024/02/25 12:44:11;;;;;;;9.57;2.10;;;10.00;11.50;;;;;;6211589;28;20081;-86
2024/02/25 12:47:13;;;;;;;10.10;2.22;;;9.80;21.20;;;;;;6217485;28;20061;-86
2024/02/25 12:50:15;;;;;;;10.93;2.25;;;9.80;24.20;;;;;;6254770;28;20580;-87
2024/02/25 12:53:17;;;;;;;11.32;2.30;;;9.80;30.40;;;;;;6230887;28;20049;-84
2024/02/25 12:56:18;;;;;;;12.38;2.38;;;9.70;32.50;;;;;;6252926;28;20519;-86
2024/02/25 12:59:21;;;;;;;14.75;2.75;;;9.50;46.40;;;;;;6217158;28;20057;-86
2024/02/25 13:02:23;;;;;;;13.60;2.50;;;9.30;53.50;;;;;;6214156;28;20229;-86
2024/02/25 13:05:26;;;;;;;8.65;2.00;;;9.20;62.00;;;;;;6258010;28;20132;-85
2024/02/25 13:08:28;;;;;;;9.30;2.30;;;9.30;72.70;;;;;;6270615;28;20425;-88
2024/02/25 13:11:31;;;;;;;9.07;2.20;;;8.80;67.70;;;;;;6228321;28;20067;-89
2024/02/25 13:14:33;;;;;;;11.30;1.90;;;8.90;70.90;;;;;;6239777;28;20523;-87
2024/02/25 13:17:35;;;;;;;12.10;2.20;;;8.70;72.70;;;;;;6227394;28;20088;-86
2024/02/25 13:20:36;;;;;;;9.88;2.10;;;8.70;73.80;;;;;;6253068;28;20052;-86
2024/02/25 13:23:38;;;;;;;8.50;2.17;;;8.70;77.40;;;;;;6225380;28;20147;-87
2024/02/25 13:26:40;;;;;;;9.15;2.10;;;8.60;80.10;;;;;;6221221;28;20077;-89
2024/02/25 13:29:48;;;;;;;11.63;2.38;;;8.50;84.60;;;;;;6212399;28;20045;-85
2024/02/25 13:32:50;;;;;;;13.45;2.50;;;8.60;85.90;;;;;;6239989;28;20658;-88
2024/02/25 13:35:53;;;;;;;16.65;2.53;;;8.60;77.40;;;;;;6224546;28;20226;-88
2024/02/25 13:38:55;;;;;;;11.38;2.75;;;8.70;79.10;;;;;;6226691;28;20053;-85
2024/02/25 13:41:57;;;;;;;10.90;2.60;;;8.60;78.20;;;;;;6252542;28;20057;-88
2024/02/25 13:45:00;;;;;;;13.85;2.60;;;8.40;84.00;;;;;;6213772;28;20093;-89
2024/02/25 13:48:01;;;;;;;12.55;2.75;;;8.40;95.40;;;;;;6222117;28;20053;-90
2024/02/25 13:51:04;;;;;;;11.07;2.50;;;8.40;91.30;;;;;;6232284;28;20424;-85
2024/02/25 13:54:06;;;;;;;13.48;2.47;;;8.40;91.10;;;;;;6223354;28;20474;-88
2024/02/25 13:57:08;;;;;;;14.23;2.33;;;8.40;90.60;;;;;;6227629;28;20053;-87
2024/02/25 14:00:11;;;;;;;12.07;2.47;;;8.40;88.00;;;;;;6220289;28;20049;-86
2024/02/25 14:03:12;;;;;;;10.55;2.40;;;8.60;87.90;;;;;;6227164;28;20064;-86
2024/02/25 14:06:14;;;;;;;9.65;2.47;;;8.40;84.30;;;;;;6224881;28;20049;-87
2024/02/25 14:09:18;;;;;;;10.70;2.20;;;9.40;85.10;;;;;;6234062;28;20214;-86
2024/02/25 14:12:20;;;;;;;13.00;2.65;;;8.40;85.90;;;;;;6225998;28;20404;-86
2024/02/25 14:15:21;;;;;;;10.57;2.22;;;8.40;83.40;;;;;;6227267;28;20049;-87
2024/02/25 14:18:23;;;;;;;10.95;2.33;;;8.40;87.00;;;;;;6219924;28;20423;-87
2024/02/25 14:21:25;;;;;;;18.05;2.70;;;8.30;88.80;;;;;;6232640;28;20055;-85
2024/02/25 14:24:28;;;;;;;12.48;2.53;;;8.20;91.00;;;;;;6225896;28;20508;-86
2024/02/25 14:27:31;;;;;;;12.90;2.30;;;8.60;90.30;;;;;;6245507;28;20057;-86
2024/02/25 14:30:32;;;;;;;11.50;2.17;;;8.20;87.90;;;;;;6228854;28;20403;-86
2024/02/25 14:33:34;;;;;;;11.00;2.53;;;8.30;88.50;;;;;;6208905;28;20133;-86
2024/02/25 14:36:36;;;;;;;9.13;2.10;;;8.30;88.50;;;;;;6239057;28;20053;-87
2024/02/25 14:39:38;;;;;;;10.23;2.47;;;8.40;97.00;;;;;;6216524;28;20058;-85
2024/02/25 14:42:53;;;;;;;11.35;2.50;;;8.20;90.20;;;;;;6241182;28;20616;-86
2024/02/25 14:45:55;;;;;;;12.13;2.53;;;8.20;89.00;;;;;;6224032;28;20493;-86
2024/02/25 14:48:59;;;;;;;11.93;2.40;;;8.30;88.40;;;;;;6200970;28;20054;-86
2024/02/25 14:52:01;;;;;;;11.73;2.42;;;8.20;90.30;;;;;;6226869;28;20060;-86
2024/02/25 14:55:05;;;;;;;8.75;2.28;;;8.30;91.00;;;;;;6236753;28;20053;-84
2024/02/25 14:58:06;;;;;;;13.65;2.38;;;8.20;91.20;;;;;;6234388;28;20056;-85
2024/02/25 15:01:10;;;;;;;11.23;2.53;;;8.10;91.60;;;;;;6209385;28;20056;-85
2024/02/25 15:04:12;;;;;;;9.30;2.25;;;8.00;91.90;;;;;;6246694;28;20564;-85
2024/02/25 15:07:14;;;;;;;14.52;2.65;;;8.00;93.20;;;;;;6234413;28;20476;-87
2024/02/25 15:10:15;;;;;;;9.60;2.08;;;7.90;92.50;;;;;;6229679;28;20049;-86
2024/02/25 15:13:17;;;;;;;12.55;2.53;;;7.90;92.90;;;;;;6234083;28;20411;-86
2024/02/25 15:16:19;;;;;;;9.65;2.17;;;7.80;93.40;;;;;;6226271;28;20057;-86
2024/02/25 15:19:21;;;;;;;15.00;2.70;;;7.80;94.30;;;;;;6228481;28;20052;-85
2024/02/25 15:22:23;;;;;;;10.18;2.95;;;7.80;94.50;;;;;;6231231;28;20091;-85
2024/02/25 15:25:25;;;;;;;11.18;2.95;;;7.80;94.80;;;;;;6218280;28;20065;-85
2024/02/25 15:28:27;;;;;;;11.85;2.80;;;7.70;95.30;;;;;;6216553;28;20428;-85
2024/02/25 15:31:32;;;;;;;13.90;3.15;;;7.70;95.80;;;;;;6231034;28;20671;-85
2024/02/25 15:34:33;;;;;;;14.75;2.90;;;7.60;96.50;;;;;;6231913;28;20046;-85
2024/02/25 15:37:35;;;;;;;10.70;2.90;;;7.60;98.00;;;;;;6220595;28;20548;-84
2024/02/25 15:40:39;;;;;;;11.85;2.90;;;7.50;98.20;;;;;;6221147;28;20054;-86
2024/02/25 15:43:41;;;;;;;10.00;2.92;;;7.50;97.60;;;;;;6212056;28;20054;-83
2024/02/25 15:46:43;;;;;;;14.57;3.05;;;7.50;97.20;;;;;;6231756;28;20185;-86
2024/02/25 15:49:45;;;;;;;11.45;2.90;;;7.50;97.60;;;;;;6240404;28;20524;-84
2024/02/25 15:52:46;;;;;;;14.00;2.60;;;7.50;98.30;;;;;;6239555;28;20038;-84
2024/02/25 15:55:48;;;;;;;15.00;2.88;;;7.50;97.60;;;;;;6225289;28;20065;-84
2024/02/25 15:58:50;;;;;;;11.02;3.00;;;7.60;97.20;;;;;;6215702;28;20058;-85
2024/02/25 16:01:52;;;;;;;13.68;3.28;;;7.60;97.40;;;;;;6206695;28;20054;-85
2024/02/25 16:04:53;;;;;;;16.77;3.05;;;7.60;95.90;;;;;;6211939;28;20058;-85
2024/02/25 16:07:55;;;;;;;9.48;2.72;;;7.50;96.30;;;;;;6232655;28;20057;-85
2024/02/25 16:10:57;;;;;;;11.60;2.67;;;7.40;97.50;;;;;;6230298;28;20058;-85
2024/02/25 16:14:08;;;;;;;12.93;3.58;;;7.40;98.60;;;;;;6212966;28;20096;-84
2024/02/25 16:17:10;;;;;;;13.80;3.05;;;7.40;98.20;;;;;;6230811;28;20058;-85
2024/02/25 16:20:11;;;;;;;10.43;2.67;;;7.40;98.90;;;;;;6220150;28;20060;-84